sensor_id;sensor_type;location;lat;lon;timestamp;pressure;altitude;pressure_sealevel;temperature;humidity
44079;BME280;29744;49.078;12.878;2023-11-22T00:02:30;96493.22;;;16.17;38.73
44079;BME280;29744;49.078;12.878;2023-11-22T00:07:33;96488.16;;;16.15;39.12
44079;BME280;29744;49.078;12.878;2023-11-22T00:12:34;96490.41;;;16.13;38.62
44079;BME280;29744;49.078;12.878;2023-11-22T00:17:36;96491.53;;;16.12;38.74
44079;BME280;29744;49.078;12.878;2023-11-22T00:22:37;96498.38;;;16.09;38.96
44079;BME280;29744;49.078;12.878;2023-11-22T00:27:37;96493.63;;;16.06;38.80
44079;BME280;29744;49.078;12.878;2023-11-22T00:32:38;96496.69;;;16.05;39.00
44079;BME280;29744;49.078;12.878;2023-11-22T00:37:38;96491.94;;;16.02;38.81
44079;BME280;29744;49.078;12.878;2023-11-22T00:42:39;96493.38;;;15.99;38.93
44079;BME280;29744;49.078;12.878;2023-11-22T00:47:41;96503.75;;;15.97;39.15
44079;BME280;29744;49.078;12.878;2023-11-22T00:52:42;96507.09;;;15.94;39.02
44079;BME280;29744;49.078;12.878;2023-11-22T00:57:44;96517.47;;;15.92;39.19
44079;BME280;29744;49.078;12.878;2023-11-22T01:02:45;96527.03;;;15.90;39.34
44079;BME280;29744;49.078;12.878;2023-11-22T01:07:45;96516.53;;;15.88;39.08
44079;BME280;29744;49.078;12.878;2023-11-22T01:12:45;96523.88;;;15.88;39.13
44079;BME280;29744;49.078;12.878;2023-11-22T01:17:46;96524.53;;;15.85;39.29
44079;BME280;29744;49.078;12.878;2023-11-22T01:22:46;96526.78;;;15.83;39.18
44079;BME280;29744;49.078;12.878;2023-11-22T01:27:46;96533.63;;;15.80;39.21
44079;BME280;29744;49.078;12.878;2023-11-22T01:32:47;96535.03;;;15.77;39.24
44079;BME280;29744;49.078;12.878;2023-11-22T01:37:49;96544.28;;;15.76;39.27
44079;BME280;29744;49.078;12.878;2023-11-22T01:42:49;96551.13;;;15.74;39.26
44079;BME280;29744;49.078;12.878;2023-11-22T01:47:50;96568.81;;;15.71;39.01
44079;BME280;29744;49.078;12.878;2023-11-22T01:52:51;96571.84;;;15.70;39.33
44079;BME280;29744;49.078;12.878;2023-11-22T01:57:52;96566.75;;;15.68;38.95
44079;BME280;29744;49.078;12.878;2023-11-22T02:02:52;96571.69;;;15.66;39.00
44079;BME280;29744;49.078;12.878;2023-11-22T02:07:53;96575.53;;;15.65;39.00
44079;BME280;29744;49.078;12.878;2023-11-22T02:12:54;96586.66;;;15.64;39.70
44079;BME280;29744;49.078;12.878;2023-11-22T02:17:55;96596.22;;;15.61;39.34
44079;BME280;29744;49.078;12.878;2023-11-22T02:22:55;96587.63;;;15.59;39.09
44079;BME280;29744;49.078;12.878;2023-11-22T02:27:57;96590.66;;;15.58;39.09
44079;BME280;29744;49.078;12.878;2023-11-22T02:32:57;96589.09;;;15.57;39.36
44079;BME280;29744;49.078;12.878;2023-11-22T02:37:58;96595.59;;;15.56;39.10
44079;BME280;29744;49.078;12.878;2023-11-22T02:42:59;96611.34;;;15.54;39.63
44079;BME280;29744;49.078;12.878;2023-11-22T02:48:05;96612.00;;;15.51;39.48
44079;BME280;29744;49.078;12.878;2023-11-22T02:53:09;96597.72;;;15.50;39.57
44079;BME280;29744;49.078;12.878;2023-11-22T02:58:10;96608.84;;;15.49;39.43
44079;BME280;29744;49.078;12.878;2023-11-22T03:03:13;96611.06;;;15.46;39.87
44079;BME280;29744;49.078;12.878;2023-11-22T03:08:13;96614.09;;;15.45;39.67
44079;BME280;29744;49.078;12.878;2023-11-22T03:13:16;96624.44;;;15.43;39.44
44079;BME280;29744;49.078;12.878;2023-11-22T03:18:16;96627.47;;;15.41;39.35
44079;BME280;29744;49.078;12.878;2023-11-22T03:23:17;96635.59;;;15.41;39.50
44079;BME280;29744;49.078;12.878;2023-11-22T03:28:17;96632.41;;;15.39;39.40
44079;BME280;29744;49.078;12.878;2023-11-22T03:33:17;96625.41;;;15.38;39.88
44079;BME280;29744;49.078;12.878;2023-11-22T03:38:18;96648.94;;;15.38;39.85
44079;BME280;29744;49.078;12.878;2023-11-22T03:43:19;96654.69;;;15.36;39.68
44079;BME280;29744;49.078;12.878;2023-11-22T03:48:19;96653.41;;;15.34;39.79
44079;BME280;29744;49.078;12.878;2023-11-22T03:53:22;96638.00;;;15.34;39.99
44079;BME280;29744;49.078;12.878;2023-11-22T03:58:23;96636.41;;;15.33;39.93
44079;BME280;29744;49.078;12.878;2023-11-22T04:03:23;96645.63;;;15.32;39.63
44079;BME280;29744;49.078;12.878;2023-11-22T04:08:23;96631.31;;;15.32;39.56
44079;BME280;29744;49.078;12.878;2023-11-22T04:13:24;96633.69;;;15.33;39.79
44079;BME280;29744;49.078;12.878;2023-11-22T04:18:25;96638.31;;;15.33;39.61
44079;BME280;29744;49.078;12.878;2023-11-22T04:23:27;96650.56;;;15.30;39.45
44079;BME280;29744;49.078;12.878;2023-11-22T04:28:27;96654.72;;;15.28;39.83
44079;BME280;29744;49.078;12.878;2023-11-22T04:33:29;96681.72;;;15.28;39.67
44079;BME280;29744;49.078;12.878;2023-11-22T04:38:30;96695.22;;;15.28;39.62
44079;BME280;29744;49.078;12.878;2023-11-22T04:43:30;96708.75;;;15.28;39.82
44079;BME280;29744;49.078;12.878;2023-11-22T04:48:31;96714.94;;;15.28;39.82
44079;BME280;29744;49.078;12.878;2023-11-22T04:53:31;96716.22;;;15.31;39.61
44079;BME280;29744;49.078;12.878;2023-11-22T04:58:33;96722.22;;;15.36;39.46
44079;BME280;29744;49.078;12.878;2023-11-22T05:03:34;96734.47;;;15.42;39.61
44079;BME280;29744;49.078;12.878;2023-11-22T05:08:34;96748.28;;;15.50;39.68
44079;BME280;29744;49.078;12.878;2023-11-22T05:13:34;96741.72;;;15.59;39.74
44079;BME280;29744;49.078;12.878;2023-11-22T05:18:35;96749.03;;;15.67;39.92
44079;BME280;29744;49.078;12.878;2023-11-22T05:23:38;96769.97;;;15.79;39.61
44079;BME280;29744;49.078;12.878;2023-11-22T05:28:38;96762.19;;;15.86;39.74
44079;BME280;29744;49.078;12.878;2023-11-22T05:33:39;96770.25;;;15.95;39.55
44079;BME280;29744;49.078;12.878;2023-11-22T05:38:40;96776.44;;;16.04;39.54
44079;BME280;29744;49.078;12.878;2023-11-22T05:43:40;96792.94;;;16.11;39.03
44079;BME280;29744;49.078;12.878;2023-11-22T05:48:42;96782.09;;;16.20;39.39
44079;BME280;29744;49.078;12.878;2023-11-22T05:53:43;96786.66;;;16.28;38.93
44079;BME280;29744;49.078;12.878;2023-11-22T05:58:43;96810.19;;;16.36;38.96
44079;BME280;29744;49.078;12.878;2023-11-22T06:03:43;96810.31;;;16.39;39.07
44079;BME280;29744;49.078;12.878;2023-11-22T06:08:44;96817.50;;;16.44;38.99
44079;BME280;29744;49.078;12.878;2023-11-22T06:13:44;96822.25;;;16.47;38.81
44079;BME280;29744;49.078;12.878;2023-11-22T06:18:46;96823.84;;;16.48;39.15
44079;BME280;29744;49.078;12.878;2023-11-22T06:23:47;96828.94;;;16.50;38.89
44079;BME280;29744;49.078;12.878;2023-11-22T06:28:47;96840.88;;;16.49;38.76
44079;BME280;29744;49.078;12.878;2023-11-22T06:33:49;96848.22;;;16.48;38.58
44079;BME280;29744;49.078;12.878;2023-11-22T06:38:49;96840.41;;;16.47;38.47
44079;BME280;29744;49.078;12.878;2023-11-22T06:43:50;96850.78;;;16.45;38.87
44079;BME280;29744;49.078;12.878;2023-11-22T06:48:50;96842.19;;;16.42;38.81
44079;BME280;29744;49.078;12.878;2023-11-22T06:53:51;96848.22;;;16.39;39.08
44079;BME280;29744;49.078;12.878;2023-11-22T06:58:54;96862.41;;;16.36;38.91
44079;BME280;29744;49.078;12.878;2023-11-22T07:03:55;96877.06;;;16.35;38.63
44079;BME280;29744;49.078;12.878;2023-11-22T07:08:55;96889.66;;;16.31;38.59
44079;BME280;29744;49.078;12.878;2023-11-22T07:13:56;96902.28;;;16.19;35.44
44079;BME280;29744;49.078;12.878;2023-11-22T07:18:57;96918.09;;;15.82;33.40
44079;BME280;29744;49.078;12.878;2023-11-22T07:23:58;96900.28;;;15.38;31.87
44079;BME280;29744;49.078;12.878;2023-11-22T07:29:02;96922.91;;;14.94;30.93
44079;BME280;29744;49.078;12.878;2023-11-22T07:34:02;96943.88;;;14.48;30.84
44079;BME280;29744;49.078;12.878;2023-11-22T07:39:02;96955.44;;;14.18;31.75
44079;BME280;29744;49.078;12.878;2023-11-22T07:44:03;96988.34;;;14.06;32.13
44079;BME280;29744;49.078;12.878;2023-11-22T07:49:04;96998.16;;;14.02;32.53
44079;BME280;29744;49.078;12.878;2023-11-22T07:54:04;96980.88;;;14.03;33.18
44079;BME280;29744;49.078;12.878;2023-11-22T07:59:05;96989.94;;;14.07;33.50
44079;BME280;29744;49.078;12.878;2023-11-22T08:04:05;96991.41;;;14.13;33.45
44079;BME280;29744;49.078;12.878;2023-11-22T08:09:05;97002.88;;;14.19;33.96
44079;BME280;29744;49.078;12.878;2023-11-22T08:14:08;97017.56;;;14.27;33.88
44079;BME280;29744;49.078;12.878;2023-11-22T08:19:09;97017.44;;;14.32;33.77
44079;BME280;29744;49.078;12.878;2023-11-22T08:24:09;97011.91;;;14.37;34.27
44079;BME280;29744;49.078;12.878;2023-11-22T08:29:11;96995.59;;;14.42;34.11
44079;BME280;29744;49.078;12.878;2023-11-22T08:34:12;97020.84;;;14.46;34.51
44079;BME280;29744;49.078;12.878;2023-11-22T08:39:12;97027.53;;;14.48;34.73
44079;BME280;29744;49.078;12.878;2023-11-22T08:44:12;97042.81;;;14.53;34.96
44079;BME280;29744;49.078;12.878;2023-11-22T08:49:13;97043.28;;;14.55;34.99
44079;BME280;29744;49.078;12.878;2023-11-22T08:54:15;97064.25;;;14.58;35.28
44079;BME280;29744;49.078;12.878;2023-11-22T08:59:17;97073.66;;;14.61;34.91
44079;BME280;29744;49.078;12.878;2023-11-22T09:09:18;97090.50;;;14.66;34.98
44079;BME280;29744;49.078;12.878;2023-11-22T09:14:19;97105.59;;;14.67;35.50
44079;BME280;29744;49.078;12.878;2023-11-22T09:19:24;97116.91;;;14.69;35.71
44079;BME280;29744;49.078;12.878;2023-11-22T09:24:25;97117.69;;;14.70;35.91
44079;BME280;29744;49.078;12.878;2023-11-22T09:29:25;97118.78;;;14.69;35.97
44079;BME280;29744;49.078;12.878;2023-11-22T09:34:26;97123.59;;;14.72;35.47
44079;BME280;29744;49.078;12.878;2023-11-22T09:39:26;97123.88;;;14.70;35.81
44079;BME280;29744;49.078;12.878;2023-11-22T09:44:27;97138.19;;;14.71;35.82
44079;BME280;29744;49.078;12.878;2023-11-22T09:49:29;97127.69;;;14.69;36.05
44079;BME280;29744;49.078;12.878;2023-11-22T09:54:33;97146.28;;;14.71;36.34
44079;BME280;29744;49.078;12.878;2023-11-22T09:59:35;97137.69;;;14.69;36.02
44079;BME280;29744;49.078;12.878;2023-11-22T10:04:36;97144.38;;;14.71;36.38
44079;BME280;29744;49.078;12.878;2023-11-22T10:09:36;97146.28;;;14.71;36.33
44079;BME280;29744;49.078;12.878;2023-11-22T10:14:38;97147.38;;;14.70;36.25
44079;BME280;29744;49.078;12.878;2023-11-22T10:19:39;97157.88;;;14.71;36.64
44079;BME280;29744;49.078;12.878;2023-11-22T10:24:39;97168.69;;;14.71;36.53
44079;BME280;29744;49.078;12.878;2023-11-22T10:29:41;97152.47;;;14.71;36.38
44079;BME280;29744;49.078;12.878;2023-11-22T10:34:41;97164.88;;;14.72;36.49
44079;BME280;29744;49.078;12.878;2023-11-22T10:39:41;97160.75;;;14.75;36.54
44079;BME280;29744;49.078;12.878;2023-11-22T10:44:42;97161.25;;;14.77;36.83
44079;BME280;29744;49.078;12.878;2023-11-22T10:49:43;97157.16;;;14.79;36.57
44079;BME280;29744;49.078;12.878;2023-11-22T10:54:49;97165.25;;;14.79;36.79
44079;BME280;29744;49.078;12.878;2023-11-22T10:59:54;97183.03;;;14.80;36.77
44079;BME280;29744;49.078;12.878;2023-11-22T11:05:04;97189.84;;;14.78;36.52
44079;BME280;29744;49.078;12.878;2023-11-22T11:10:13;97188.56;;;14.75;36.80
44079;BME280;29744;49.078;12.878;2023-11-22T11:15:14;97183.16;;;14.75;36.60
44079;BME280;29744;49.078;12.878;2023-11-22T11:20:17;97184.56;;;14.73;36.89
44079;BME280;29744;49.078;12.878;2023-11-22T11:25:19;97175.69;;;14.72;36.76
44079;BME280;29744;49.078;12.878;2023-11-22T11:35:42;97151.69;;;14.71;37.44
44079;BME280;29744;49.078;12.878;2023-11-22T11:40:46;97146.28;;;14.71;36.91
44079;BME280;29744;49.078;12.878;2023-11-22T11:45:47;97145.00;;;14.68;36.83
44079;BME280;29744;49.078;12.878;2023-11-22T11:50:47;97157.38;;;14.69;37.19
44079;BME280;29744;49.078;12.878;2023-11-22T11:55:48;97147.69;;;14.68;37.22
44079;BME280;29744;49.078;12.878;2023-11-22T12:00:51;97163.91;;;14.68;37.26
44079;BME280;29744;49.078;12.878;2023-11-22T12:05:52;97174.19;;;14.66;37.45
44079;BME280;29744;49.078;12.878;2023-11-22T12:10:56;97186.28;;;14.69;37.20
44079;BME280;29744;49.078;12.878;2023-11-22T12:15:56;97191.88;;;14.72;37.23
44079;BME280;29744;49.078;12.878;2023-11-22T12:20:58;97198.06;;;14.73;37.53
44079;BME280;29744;49.078;12.878;2023-11-22T12:26:01;97201.88;;;14.72;37.59
44079;BME280;29744;49.078;12.878;2023-11-22T12:31:13;97215.38;;;14.72;37.39
44079;BME280;29744;49.078;12.878;2023-11-22T12:36:14;97222.38;;;14.73;37.40
44079;BME280;29744;49.078;12.878;2023-11-22T12:41:19;97219.50;;;14.69;37.29
44079;BME280;29744;49.078;12.878;2023-11-22T12:46:19;97215.50;;;14.67;37.30
44079;BME280;29744;49.078;12.878;2023-11-22T12:51:19;97223.91;;;14.65;37.58
44079;BME280;29744;49.078;12.878;2023-11-22T12:56:26;97239.31;;;14.65;37.52
44079;BME280;29744;49.078;12.878;2023-11-22T13:01:28;97244.69;;;14.65;37.46
44079;BME280;29744;49.078;12.878;2023-11-22T13:06:28;97235.50;;;14.66;37.64
44079;BME280;29744;49.078;12.878;2023-11-22T13:11:29;97227.88;;;14.68;37.65
44079;BME280;29744;49.078;12.878;2023-11-22T13:16:30;97222.19;;;14.69;37.67
44079;BME280;29744;49.078;12.878;2023-11-22T13:21:30;97204.09;;;14.70;37.76
44079;BME280;29744;49.078;12.878;2023-11-22T13:26:31;97198.69;;;14.70;37.59
44079;BME280;29744;49.078;12.878;2023-11-22T13:31:31;97194.38;;;14.69;37.29
44079;BME280;29744;49.078;12.878;2023-11-22T13:36:32;97179.00;;;14.69;37.56
44079;BME280;29744;49.078;12.878;2023-11-22T13:41:32;97171.69;;;14.70;37.37
44079;BME280;29744;49.078;12.878;2023-11-22T13:46:32;97193.28;;;14.70;37.94
44079;BME280;29744;49.078;12.878;2023-11-22T13:51:33;97199.78;;;14.69;37.91
44079;BME280;29744;49.078;12.878;2023-11-22T13:56:34;97207.09;;;14.68;37.79
44079;BME280;29744;49.078;12.878;2023-11-22T14:01:34;97206.28;;;14.68;37.43
44079;BME280;29744;49.078;12.878;2023-11-22T14:06:35;97210.91;;;14.67;37.88
44079;BME280;29744;49.078;12.878;2023-11-22T14:11:36;97216.28;;;14.67;37.81
44079;BME280;29744;49.078;12.878;2023-11-22T14:16:37;97213.59;;;14.67;37.94
44079;BME280;29744;49.078;12.878;2023-11-22T14:21:40;97205.81;;;14.66;37.75
44079;BME280;29744;49.078;12.878;2023-11-22T14:26:41;97214.69;;;14.66;37.59
44079;BME280;29744;49.078;12.878;2023-11-22T14:31:41;97207.69;;;14.65;37.98
44079;BME280;29744;49.078;12.878;2023-11-22T14:36:42;97214.69;;;14.66;38.02
44079;BME280;29744;49.078;12.878;2023-11-22T14:41:42;97250.91;;;14.65;37.89
44079;BME280;29744;49.078;12.878;2023-11-22T14:46:45;97252.78;;;14.65;37.83
44079;BME280;29744;49.078;12.878;2023-11-22T14:56:46;97259.91;;;14.61;37.81
44079;BME280;29744;49.078;12.878;2023-11-22T15:01:47;97270.72;;;14.61;38.16
44079;BME280;29744;49.078;12.878;2023-11-22T15:06:48;97259.91;;;14.61;37.64
44079;BME280;29744;49.078;12.878;2023-11-22T15:11:49;97259.09;;;14.60;37.62
44079;BME280;29744;49.078;12.878;2023-11-22T15:16:50;97274.81;;;14.58;37.89
44079;BME280;29744;49.078;12.878;2023-11-22T15:21:50;97274.31;;;14.56;37.98
44079;BME280;29744;49.078;12.878;2023-11-22T15:26:54;97246.53;;;14.56;37.82
44079;BME280;29744;49.078;12.878;2023-11-22T15:31:56;97245.72;;;14.55;37.67
44079;BME280;29744;49.078;12.878;2023-11-22T15:36:56;97253.31;;;14.53;38.29
44079;BME280;29744;49.078;12.878;2023-11-22T15:41:58;97267.63;;;14.54;38.02
44079;BME280;29744;49.078;12.878;2023-11-22T15:46:58;97260.13;;;14.50;38.15
44079;BME280;29744;49.078;12.878;2023-11-22T15:51:58;97259.13;;;14.46;38.38
44079;BME280;29744;49.078;12.878;2023-11-22T15:56:59;97254.53;;;14.47;38.38
44079;BME280;29744;49.078;12.878;2023-11-22T16:01:59;97257.53;;;14.45;38.26
44079;BME280;29744;49.078;12.878;2023-11-22T16:06:59;97280.22;;;14.44;38.30
44079;BME280;29744;49.078;12.878;2023-11-22T16:12:02;97292.44;;;14.42;38.50
44079;BME280;29744;49.078;12.878;2023-11-22T16:17:02;97293.84;;;14.39;38.04
44079;BME280;29744;49.078;12.878;2023-11-22T16:22:04;97300.53;;;14.42;38.11
44079;BME280;29744;49.078;12.878;2023-11-22T16:27:05;97323.72;;;14.43;38.09
44079;BME280;29744;49.078;12.878;2023-11-22T16:32:06;97335.81;;;14.45;38.70
44079;BME280;29744;49.078;12.878;2023-11-22T16:37:06;97340.31;;;14.50;38.71
44079;BME280;29744;49.078;12.878;2023-11-22T16:42:07;97339.09;;;14.56;38.36
44079;BME280;29744;49.078;12.878;2023-11-22T16:47:10;97345.19;;;14.62;38.72
44079;BME280;29744;49.078;12.878;2023-11-22T16:52:10;97341.78;;;14.70;38.83
44079;BME280;29744;49.078;12.878;2023-11-22T16:57:11;97344.25;;;14.80;38.30
44079;BME280;29744;49.078;12.878;2023-11-22T17:02:13;97348.63;;;14.90;38.64
44079;BME280;29744;49.078;12.878;2023-11-22T17:07:13;97340.63;;;14.98;38.44
44079;BME280;29744;49.078;12.878;2023-11-22T17:12:14;97338.03;;;15.07;38.29
44079;BME280;29744;49.078;12.878;2023-11-22T17:17:15;97346.69;;;15.18;38.35
44079;BME280;29744;49.078;12.878;2023-11-22T17:22:16;97346.16;;;15.29;38.18
44079;BME280;29744;49.078;12.878;2023-11-22T17:27:17;97342.09;;;15.40;38.52
44079;BME280;29744;49.078;12.878;2023-11-22T17:32:18;97362.38;;;15.52;38.19
44079;BME280;29744;49.078;12.878;2023-11-22T17:37:18;97368.81;;;15.64;38.07
44079;BME280;29744;49.078;12.878;2023-11-22T17:42:19;97388.78;;;15.77;38.28
44079;BME280;29744;49.078;12.878;2023-11-22T17:47:19;97390.97;;;15.89;37.94
44079;BME280;29744;49.078;12.878;2023-11-22T17:52:19;97393.09;;;16.00;37.80
44079;BME280;29744;49.078;12.878;2023-11-22T17:57:20;97400.94;;;16.10;37.98
44079;BME280;29744;49.078;12.878;2023-11-22T18:02:21;97404.19;;;16.21;37.98
44079;BME280;29744;49.078;12.878;2023-11-22T18:07:22;97408.22;;;16.32;37.73
44079;BME280;29744;49.078;12.878;2023-11-22T18:12:23;97408.28;;;16.41;37.38
44079;BME280;29744;49.078;12.878;2023-11-22T18:17:23;97411.84;;;16.50;37.79
44079;BME280;29744;49.078;12.878;2023-11-22T18:22:23;97399.94;;;16.60;37.45
44079;BME280;29744;49.078;12.878;2023-11-22T18:27:24;97398.88;;;16.69;37.07
44079;BME280;29744;49.078;12.878;2023-11-22T18:32:25;97401.28;;;16.80;37.01
44079;BME280;29744;49.078;12.878;2023-11-22T18:37:26;97396.22;;;16.87;37.52
44079;BME280;29744;49.078;12.878;2023-11-22T18:42:26;97402.44;;;16.96;37.09
44079;BME280;29744;49.078;12.878;2023-11-22T18:47:26;97404.38;;;17.04;36.91
44079;BME280;29744;49.078;12.878;2023-11-22T18:52:27;97403.91;;;17.11;37.09
44079;BME280;29744;49.078;12.878;2023-11-22T18:57:27;97394.97;;;17.19;37.17
44079;BME280;29744;49.078;12.878;2023-11-22T19:02:28;97386.88;;;17.27;37.01
44079;BME280;29744;49.078;12.878;2023-11-22T19:07:28;97373.16;;;17.32;37.12
44079;BME280;29744;49.078;12.878;2023-11-22T19:12:28;97383.84;;;17.38;36.76
44079;BME280;29744;49.078;12.878;2023-11-22T19:17:29;97378.59;;;17.41;36.60
44079;BME280;29744;49.078;12.878;2023-11-22T19:22:30;97393.91;;;17.46;36.77
44079;BME280;29744;49.078;12.878;2023-11-22T19:27:30;97415.75;;;17.49;36.72
44079;BME280;29744;49.078;12.878;2023-11-22T19:32:32;97401.25;;;17.54;36.52
44079;BME280;29744;49.078;12.878;2023-11-22T19:37:33;97405.22;;;17.56;36.43
44079;BME280;29744;49.078;12.878;2023-11-22T19:42:33;97397.56;;;17.58;36.36
44079;BME280;29744;49.078;12.878;2023-11-22T19:47:34;97381.78;;;17.60;36.28
44079;BME280;29744;49.078;12.878;2023-11-22T19:52:35;97373.31;;;17.62;36.05
44079;BME280;29744;49.078;12.878;2023-11-22T19:57:36;97362.47;;;17.62;35.97
44079;BME280;29744;49.078;12.878;2023-11-22T20:02:38;97357.69;;;17.59;36.36
44079;BME280;29744;49.078;12.878;2023-11-22T20:07:38;97355.59;;;17.56;36.26
44079;BME280;29744;49.078;12.878;2023-11-22T20:12:38;97369.00;;;17.52;36.32
44079;BME280;29744;49.078;12.878;2023-11-22T20:17:39;97375.41;;;17.48;35.91
44079;BME280;29744;49.078;12.878;2023-11-22T20:22:40;97376.69;;;17.42;36.04
44079;BME280;29744;49.078;12.878;2023-11-22T20:27:40;97384.97;;;17.36;36.13
44079;BME280;29744;49.078;12.878;2023-11-22T20:32:42;97390.22;;;17.33;36.63
44079;BME280;29744;49.078;12.878;2023-11-22T20:37:42;97375.25;;;17.27;36.45
44079;BME280;29744;49.078;12.878;2023-11-22T20:42:42;97381.09;;;17.20;36.59
44079;BME280;29744;49.078;12.878;2023-11-22T20:47:43;97382.84;;;17.16;36.55
44079;BME280;29744;49.078;12.878;2023-11-22T20:52:43;97388.91;;;17.13;36.24
44079;BME280;29744;49.078;12.878;2023-11-22T20:57:43;97382.53;;;17.09;36.44
44079;BME280;29744;49.078;12.878;2023-11-22T21:02:43;97389.38;;;17.07;36.42
44079;BME280;29744;49.078;12.878;2023-11-22T21:07:44;97388.91;;;17.04;36.82
44079;BME280;29744;49.078;12.878;2023-11-22T21:12:44;97399.91;;;16.99;36.67
44079;BME280;29744;49.078;12.878;2023-11-22T21:17:45;97410.25;;;16.97;37.07
44079;BME280;29744;49.078;12.878;2023-11-22T21:22:47;97394.63;;;16.94;36.98
44079;BME280;29744;49.078;12.878;2023-11-22T21:27:48;97385.22;;;16.92;36.55
44079;BME280;29744;49.078;12.878;2023-11-22T21:32:48;97381.88;;;16.86;36.63
44079;BME280;29744;49.078;12.878;2023-11-22T21:37:49;97377.88;;;16.84;36.75
44079;BME280;29744;49.078;12.878;2023-11-22T21:42:50;97356.84;;;16.81;36.83
44079;BME280;29744;49.078;12.878;2023-11-22T21:47:50;97350.94;;;16.79;36.88
44079;BME280;29744;49.078;12.878;2023-11-22T21:52:50;97360.47;;;16.76;36.88
44079;BME280;29744;49.078;12.878;2023-11-22T21:57:52;97355.69;;;16.73;36.51
44079;BME280;29744;49.078;12.878;2023-11-22T22:02:52;97357.13;;;16.70;37.05
44079;BME280;29744;49.078;12.878;2023-11-22T22:07:54;97347.41;;;16.69;37.17
44079;BME280;29744;49.078;12.878;2023-11-22T22:12:54;97343.72;;;16.65;36.80
44079;BME280;29744;49.078;12.878;2023-11-22T22:17:54;97355.19;;;16.62;36.62
44079;BME280;29744;49.078;12.878;2023-11-22T22:22:55;97346.41;;;16.57;37.16
44079;BME280;29744;49.078;12.878;2023-11-22T22:27:55;97345.41;;;16.53;37.35
44079;BME280;29744;49.078;12.878;2023-11-22T22:32:56;97344.78;;;16.47;37.02
44079;BME280;29744;49.078;12.878;2023-11-22T22:37:59;97350.81;;;16.44;37.35
44079;BME280;29744;49.078;12.878;2023-11-22T22:42:59;97357.66;;;16.41;36.97
44079;BME280;29744;49.078;12.878;2023-11-22T22:48:00;97356.34;;;16.39;37.29
44079;BME280;29744;49.078;12.878;2023-11-22T22:53:00;97363.19;;;16.36;37.19
44079;BME280;29744;49.078;12.878;2023-11-22T22:58:00;97367.31;;;16.34;36.88
44079;BME280;29744;49.078;12.878;2023-11-22T23:03:01;97358.53;;;16.28;37.22
44079;BME280;29744;49.078;12.878;2023-11-22T23:08:01;97348.63;;;16.24;37.36
44079;BME280;29744;49.078;12.878;2023-11-22T23:13:02;97354.69;;;16.21;37.39
44079;BME280;29744;49.078;12.878;2023-11-22T23:18:03;97335.56;;;16.17;37.61
44079;BME280;29744;49.078;12.878;2023-11-22T23:23:06;97324.56;;;16.14;37.41
44079;BME280;29744;49.078;12.878;2023-11-22T23:28:06;97315.00;;;16.07;37.46
44079;BME280;29744;49.078;12.878;2023-11-22T23:33:07;97308.28;;;16.05;37.25
44079;BME280;29744;49.078;12.878;2023-11-22T23:38:07;97296.50;;;16.01;37.36
44079;BME280;29744;49.078;12.878;2023-11-22T23:43:07;97296.63;;;15.96;37.31
44079;BME280;29744;49.078;12.878;2023-11-22T23:48:09;97289.47;;;15.91;37.31
44079;BME280;29744;49.078;12.878;2023-11-22T23:53:13;97286.56;;;15.88;37.68
44079;BME280;29744;49.078;12.878;2023-11-22T23:58:13;97299.13;;;15.84;37.54
